createdAt,value
2022-08-28T00:02:05.228Z,60.43
2022-08-28T00:04:33.287Z,61.02
2022-08-28T00:07:03.039Z,61.08
2022-08-28T00:09:31.006Z,61.13
2022-08-28T00:11:58.872Z,61.98
2022-08-28T00:14:27.047Z,65.59
2022-08-28T00:16:55.117Z,70.00
2022-08-28T00:19:24.781Z,68.86
2022-08-28T00:21:52.794Z,66.99
2022-08-28T00:24:20.605Z,65.79
2022-08-28T00:27:07.161Z,64.96
2022-08-28T00:29:35.023Z,63.27
2022-08-28T00:32:03.532Z,62.24
2022-08-28T00:34:33.863Z,60.86
2022-08-28T00:37:02.147Z,60.27
2022-08-28T00:39:30.078Z,59.06
2022-08-28T00:41:58.957Z,57.49
2022-08-28T00:44:28.063Z,57.46
2022-08-28T00:46:57.669Z,57.43
2022-08-28T00:49:36.020Z,57.71
2022-08-28T00:52:05.954Z,57.12
2022-08-28T00:54:41.721Z,58.53
2022-08-28T00:57:34.559Z,58.86
2022-08-28T01:00:08.165Z,59.19
2022-08-28T01:02:36.351Z,59.04
2022-08-28T01:05:08.983Z,59.51
2022-08-28T01:07:37.530Z,59.66
2022-08-28T01:10:11.225Z,60.20
2022-08-28T01:12:39.199Z,61.88
2022-08-28T01:15:13.911Z,67.27
2022-08-28T01:18:07.847Z,71.01
2022-08-28T01:20:38.553Z,70.17
2022-08-28T01:23:24.580Z,68.30
2022-08-28T01:25:52.702Z,66.48
2022-08-28T01:28:20.560Z,65.10
2022-08-28T01:30:49.417Z,62.74
2022-08-28T01:33:17.522Z,61.78
2022-08-28T01:35:47.728Z,61.05
2022-08-28T01:38:17.594Z,60.19
2022-08-28T01:40:53.459Z,59.48
2022-08-28T01:43:23.868Z,57.77
2022-08-28T01:45:55.213Z,57.79
2022-08-28T01:48:25.913Z,58.33
2022-08-28T01:50:53.971Z,59.24
2022-08-28T01:53:24.948Z,60.64
2022-08-28T01:55:54.442Z,60.00
2022-08-28T01:58:23.214Z,59.92
2022-08-28T02:00:54.186Z,59.66
2022-08-28T02:03:23.657Z,61.53
2022-08-28T02:05:51.651Z,67.65
2022-08-28T02:08:20.306Z,69.05
2022-08-28T02:10:49.231Z,67.38
2022-08-28T02:13:17.269Z,65.30
2022-08-28T02:15:46.307Z,65.35
2022-08-28T02:18:14.748Z,64.13
2022-08-28T02:20:43.325Z,63.12
2022-08-28T02:23:11.597Z,61.62
2022-08-28T02:25:39.976Z,60.22
2022-08-28T02:28:08.179Z,59.63
2022-08-28T02:30:36.890Z,58.28
2022-08-28T02:33:04.804Z,57.33
2022-08-28T02:35:32.880Z,57.54
2022-08-28T02:38:01.762Z,58.34
2022-08-28T02:40:30.289Z,57.68
2022-08-28T02:42:58.620Z,57.59
2022-08-28T02:45:26.593Z,59.27
2022-08-28T02:47:57.116Z,58.85
2022-08-28T02:50:25.087Z,58.93
2022-08-28T02:52:53.663Z,62.21
2022-08-28T02:55:22.047Z,68.33
2022-08-28T02:57:50.013Z,68.52
2022-08-28T03:00:22.285Z,67.43
2022-08-28T03:02:50.733Z,65.89
2022-08-28T03:05:23.317Z,64.85
2022-08-28T03:07:53.767Z,64.12
2022-08-28T03:10:22.040Z,62.65
2022-08-28T03:12:50.010Z,61.59
2022-08-28T03:15:18.320Z,60.71
2022-08-28T03:17:46.253Z,60.14
2022-08-28T03:20:16.374Z,59.06
2022-08-28T03:23:02.706Z,57.34
2022-08-28T03:25:30.643Z,57.82
2022-08-28T03:27:58.605Z,57.92
2022-08-28T03:30:26.491Z,58.22
2022-08-28T03:32:54.440Z,58.27
2022-08-28T03:35:22.409Z,60.89
2022-08-28T03:37:50.723Z,60.38
2022-08-28T03:40:20.383Z,59.67
2022-08-28T03:42:53.141Z,59.73
2022-08-28T03:45:22.003Z,60.19
2022-08-28T03:47:50.939Z,60.06
2022-08-28T03:50:19.884Z,60.36
2022-08-28T03:52:47.913Z,61.66
2022-08-28T03:55:15.814Z,61.79
2022-08-28T03:57:43.850Z,66.71
2022-08-28T04:00:13.452Z,70.89
2022-08-28T04:02:42.688Z,68.98
2022-08-28T04:05:11.252Z,66.86
2022-08-28T04:07:40.441Z,65.56
2022-08-28T04:10:09.332Z,63.97
2022-08-28T04:12:37.703Z,62.71
2022-08-28T04:15:07.211Z,61.07
2022-08-28T04:17:38.763Z,59.82
2022-08-28T04:20:08.532Z,57.58
2022-08-28T04:22:37.465Z,56.64
2022-08-28T04:25:06.559Z,57.75
2022-08-28T04:27:34.526Z,59.29
2022-08-28T04:30:02.496Z,60.13
2022-08-28T04:32:30.670Z,60.58
2022-08-28T04:34:58.701Z,60.43
2022-08-28T04:37:27.959Z,59.90
2022-08-28T04:39:56.146Z,60.17
2022-08-28T04:42:24.287Z,60.96
2022-08-28T04:44:59.213Z,62.64
2022-08-28T04:47:27.899Z,65.60
2022-08-28T04:49:55.870Z,63.47
2022-08-28T04:52:23.834Z,60.59
2022-08-28T04:54:51.802Z,56.79
2022-08-28T04:57:19.697Z,54.79
2022-08-28T04:59:48.054Z,54.84
2022-08-28T05:02:16.043Z,54.43
2022-08-28T05:04:44.320Z,54.22
2022-08-28T05:07:12.208Z,53.73
2022-08-28T05:09:40.119Z,53.05
2022-08-28T05:12:08.120Z,52.41
2022-08-28T05:14:36.809Z,51.72
2022-08-28T05:17:04.957Z,50.86
2022-08-28T05:19:32.845Z,49.74
2022-08-28T05:22:00.812Z,48.57
2022-08-28T05:24:28.955Z,47.65
2022-08-28T05:26:57.709Z,46.59
2022-08-28T05:29:25.926Z,45.68
2022-08-28T05:31:53.962Z,44.23
2022-08-28T05:34:22.019Z,43.27
2022-08-28T05:36:50.024Z,42.38
2022-08-28T05:39:18.094Z,41.59
2022-08-28T05:41:46.406Z,40.82
2022-08-28T05:44:15.645Z,40.05
2022-08-28T05:46:44.996Z,39.14
2022-08-28T05:49:13.693Z,39.09
2022-08-28T05:51:42.272Z,38.56
2022-08-28T05:54:10.616Z,38.82
2022-08-28T05:56:40.116Z,38.67
2022-08-28T05:59:08.908Z,38.01
2022-08-28T06:01:40.890Z,37.51
2022-08-28T06:04:14.766Z,36.63
2022-08-28T06:06:43.084Z,35.68
2022-08-28T06:09:29.096Z,34.67
2022-08-28T06:11:59.782Z,33.72
2022-08-28T06:14:27.846Z,33.04
2022-08-28T06:16:56.716Z,32.18
2022-08-28T06:19:26.188Z,31.58
2022-08-28T06:21:58.386Z,31.28
2022-08-28T06:24:28.069Z,30.91
2022-08-28T06:26:58.682Z,30.36
2022-08-28T06:29:27.583Z,30.14
2022-08-28T06:31:58.278Z,29.74
2022-08-28T06:34:27.056Z,29.33
2022-08-28T06:36:55.331Z,28.91
2022-08-28T06:39:23.354Z,29.04
2022-08-28T06:41:51.470Z,28.49
2022-08-28T06:44:20.621Z,28.10
2022-08-28T06:46:50.830Z,27.99
2022-08-28T06:49:18.963Z,27.47
2022-08-28T06:51:47.116Z,27.45
2022-08-28T06:54:22.290Z,26.75
2022-08-28T06:56:52.197Z,26.24
2022-08-28T06:59:20.240Z,25.84
2022-08-28T07:01:48.171Z,24.64
2022-08-28T07:04:16.295Z,23.43
2022-08-28T07:06:53.694Z,24.28
2022-08-28T07:09:23.419Z,24.45
2022-08-28T07:11:51.481Z,25.79
2022-08-28T07:14:19.317Z,26.10
2022-08-28T07:16:47.318Z,25.62
2022-08-28T07:19:15.179Z,26.72
2022-08-28T07:21:44.863Z,25.98
2022-08-28T07:24:13.397Z,25.94
2022-08-28T07:26:41.776Z,25.58
2022-08-28T07:29:11.469Z,26.88
2022-08-28T07:31:44.080Z,26.12
2022-08-28T07:34:12.300Z,25.01
2022-08-28T07:36:40.579Z,25.68
2022-08-28T07:39:08.876Z,25.98
2022-08-28T07:41:39.325Z,25.69
2022-08-28T07:44:26.627Z,24.53
2022-08-28T07:46:55.767Z,23.99
2022-08-28T07:49:24.196Z,23.14
2022-08-28T07:51:54.009Z,22.89
2022-08-28T07:54:23.455Z,23.99
2022-08-28T07:56:51.815Z,23.38
2022-08-28T07:59:20.536Z,23.80
2022-08-28T08:01:51.597Z,23.83
2022-08-28T08:04:20.570Z,23.53
2022-08-28T08:06:48.585Z,23.78
2022-08-28T08:09:18.182Z,23.61
2022-08-28T08:11:46.814Z,23.61
2022-08-28T08:14:16.278Z,24.81
2022-08-28T08:16:45.194Z,25.06
2022-08-28T08:19:14.189Z,25.71
2022-08-28T08:21:47.199Z,27.10
2022-08-28T08:24:20.885Z,27.70
2022-08-28T08:26:59.278Z,28.42
2022-08-28T08:29:31.891Z,29.02
2022-08-28T08:32:06.235Z,30.26
2022-08-28T08:34:38.670Z,30.49
2022-08-28T08:37:06.809Z,30.32
2022-08-28T08:39:35.484Z,30.45
2022-08-28T08:42:05.606Z,30.34
2022-08-28T08:44:43.430Z,30.71
2022-08-28T08:47:51.359Z,31.10
2022-08-28T08:50:28.534Z,31.59
2022-08-28T08:53:28.583Z,31.37
2022-08-28T08:55:57.155Z,31.15
2022-08-28T08:58:36.301Z,30.75
2022-08-28T09:01:35.185Z,30.57
2022-08-28T09:04:23.132Z,31.45
2022-08-28T09:07:09.296Z,31.43
2022-08-28T09:10:04.341Z,31.46
2022-08-28T09:12:51.305Z,31.48
2022-08-28T09:15:34.664Z,31.17
2022-08-28T09:18:26.345Z,31.53
2022-08-28T09:20:58.293Z,32.10
2022-08-28T09:23:29.886Z,31.11
2022-08-28T09:26:09.287Z,30.76
2022-08-28T09:28:42.034Z,31.38
2022-08-28T09:31:15.859Z,31.11
2022-08-28T09:33:54.088Z,31.71
2022-08-28T09:36:36.774Z,31.08
2022-08-28T09:39:24.790Z,31.21
2022-08-28T09:42:33.079Z,31.75
2022-08-28T09:45:27.387Z,32.04
2022-08-28T09:47:59.411Z,31.43
2022-08-28T09:50:35.713Z,32.20
2022-08-28T09:53:09.704Z,31.49
2022-08-28T09:56:07.055Z,32.04
2022-08-28T09:58:44.584Z,32.01
2022-08-28T10:01:45.220Z,31.78
2022-08-28T10:04:37.117Z,31.87
2022-08-28T10:07:11.086Z,32.15
2022-08-28T10:09:40.558Z,32.25
2022-08-28T10:13:01.619Z,31.85
2022-08-28T10:15:50.026Z,31.17
2022-08-28T10:19:07.724Z,29.95
2022-08-28T10:21:47.672Z,29.12
2022-08-28T10:24:46.404Z,29.98
2022-08-28T10:27:46.173Z,30.08
2022-08-28T10:30:17.726Z,28.53
2022-08-28T10:33:26.077Z,28.73
2022-08-28T10:36:02.596Z,28.97
2022-08-28T10:38:43.466Z,27.95
2022-08-28T10:41:19.344Z,27.67
2022-08-28T10:43:52.712Z,28.10
2022-08-28T10:46:42.711Z,27.46
2022-08-28T10:49:34.815Z,28.98
2022-08-28T10:52:10.546Z,28.63
2022-08-28T10:54:43.957Z,28.44
2022-08-28T10:57:39.230Z,28.16
2022-08-28T11:00:14.675Z,28.61
2022-08-28T11:02:47.412Z,28.78
2022-08-28T11:05:20.011Z,29.35
2022-08-28T11:07:51.263Z,29.95
2022-08-28T11:10:37.169Z,30.38
2022-08-28T11:13:06.903Z,29.94
2022-08-28T11:15:37.328Z,29.59
2022-08-28T11:18:26.140Z,29.42
2022-08-28T11:20:59.560Z,30.60
2022-08-28T11:23:42.191Z,30.93
2022-08-28T11:26:10.203Z,30.00
2022-08-28T11:28:45.727Z,29.42
2022-08-28T11:31:28.530Z,28.70
2022-08-28T11:33:59.198Z,28.51
2022-08-28T11:36:29.037Z,28.13
2022-08-28T11:38:57.752Z,28.09
2022-08-28T11:41:32.717Z,28.73
2022-08-28T11:44:09.673Z,28.79
2022-08-28T11:46:41.971Z,28.32
2022-08-28T11:49:31.730Z,28.65
2022-08-28T11:52:33.509Z,27.80
2022-08-28T11:55:24.878Z,28.27
2022-08-28T11:58:14.477Z,28.42
2022-08-28T12:00:55.128Z,28.47
2022-08-28T12:03:35.575Z,28.75
2022-08-28T12:06:03.949Z,28.89
2022-08-28T12:08:53.240Z,29.38
2022-08-28T12:11:39.301Z,29.16
2022-08-28T12:14:38.675Z,29.46
2022-08-28T12:17:09.686Z,28.67
2022-08-28T12:19:55.558Z,27.91
2022-08-28T12:22:39.600Z,27.78
2022-08-28T12:25:10.115Z,27.62
2022-08-28T12:27:38.039Z,28.10
2022-08-28T12:30:06.413Z,27.19
2022-08-28T12:32:45.747Z,27.14
2022-08-28T12:35:21.624Z,27.72
2022-08-28T12:37:56.127Z,27.88
2022-08-28T12:40:37.822Z,28.01
2022-08-28T12:43:09.308Z,28.23
2022-08-28T12:45:51.320Z,29.73
2022-08-28T12:48:53.528Z,30.46
2022-08-28T12:51:24.779Z,29.71
2022-08-28T12:53:58.580Z,29.08
2022-08-28T12:56:30.254Z,29.03
2022-08-28T12:59:33.344Z,29.07
2022-08-28T13:02:23.308Z,28.85
2022-08-28T13:05:20.544Z,28.51
2022-08-28T13:07:50.959Z,28.09
2022-08-28T13:10:25.631Z,28.32
2022-08-28T13:13:21.540Z,29.07
2022-08-28T13:16:01.707Z,28.41
2022-08-28T13:18:50.348Z,28.65
2022-08-28T13:21:34.043Z,28.47
2022-08-28T13:24:31.900Z,28.81
2022-08-28T13:27:18.096Z,29.71
2022-08-28T13:30:21.039Z,29.45
2022-08-28T13:33:22.750Z,30.59
2022-08-28T13:35:51.514Z,31.13
2022-08-28T13:38:21.485Z,31.25
2022-08-28T13:40:59.193Z,31.12
2022-08-28T13:43:30.212Z,31.10
2022-08-28T13:45:58.283Z,31.29
2022-08-28T13:48:27.337Z,33.44
2022-08-28T13:51:04.969Z,37.05
2022-08-28T13:53:33.572Z,33.89
2022-08-28T13:56:01.641Z,34.30
2022-08-28T13:58:29.677Z,34.03
2022-08-28T14:00:57.567Z,33.57
2022-08-28T14:03:41.420Z,33.93
2022-08-28T14:06:16.911Z,33.80
2022-08-28T14:08:45.789Z,34.01
2022-08-28T14:11:15.230Z,33.86
2022-08-28T14:13:47.312Z,33.86
2022-08-28T14:16:25.267Z,33.02
2022-08-28T14:18:53.670Z,33.47
2022-08-28T14:21:24.618Z,33.57
2022-08-28T14:23:52.600Z,33.27
2022-08-28T14:26:20.396Z,32.65
2022-08-28T14:28:48.215Z,33.13
2022-08-28T14:31:16.187Z,33.35
2022-08-28T14:33:45.389Z,33.30
2022-08-28T14:36:23.082Z,32.92
2022-08-28T14:38:54.010Z,32.86
2022-08-28T14:41:23.326Z,34.13
2022-08-28T14:44:09.738Z,35.23
2022-08-28T14:46:37.705Z,33.57
2022-08-28T14:49:08.512Z,34.04
2022-08-28T14:51:38.092Z,35.58
2022-08-28T14:54:06.263Z,36.83
2022-08-28T14:56:34.230Z,36.23
2022-08-28T14:59:02.648Z,37.54
2022-08-28T15:01:40.262Z,37.54
2022-08-28T15:04:15.319Z,35.74
2022-08-28T15:06:43.582Z,39.02
2022-08-28T15:09:12.431Z,40.55
2022-08-28T15:11:40.632Z,40.58
2022-08-28T15:14:09.021Z,41.65
2022-08-28T15:16:41.658Z,41.92
2022-08-28T15:19:12.344Z,41.83
2022-08-28T15:21:52.426Z,38.56
2022-08-28T15:24:24.757Z,39.70
2022-08-28T15:26:52.837Z,41.08
2022-08-28T15:29:21.178Z,41.46
2022-08-28T15:31:49.673Z,42.48
2022-08-28T15:34:25.183Z,42.96
2022-08-28T15:36:55.179Z,43.15
2022-08-28T15:39:44.440Z,43.48
2022-08-28T15:42:12.385Z,43.76
2022-08-28T15:44:40.401Z,44.06
2022-08-28T15:47:08.503Z,44.24
2022-08-28T15:49:38.907Z,44.27
2022-08-28T15:52:18.593Z,44.52
2022-08-28T15:54:47.566Z,44.63
2022-08-28T15:57:15.713Z,44.86
2022-08-28T15:59:49.994Z,44.78
2022-08-28T16:02:21.011Z,44.94
2022-08-28T16:04:49.386Z,45.10
2022-08-28T16:07:17.928Z,45.09
2022-08-28T16:09:45.776Z,45.02
2022-08-28T16:12:13.913Z,45.17
2022-08-28T16:14:41.794Z,45.24
2022-08-28T16:17:10.757Z,45.20
2022-08-28T16:19:40.361Z,45.41
2022-08-28T16:22:09.693Z,45.47
2022-08-28T16:24:37.789Z,45.72
2022-08-28T16:27:09.502Z,44.98
2022-08-28T16:29:41.621Z,45.50
2022-08-28T16:32:09.637Z,48.30
2022-08-28T16:34:40.137Z,48.37
2022-08-28T16:37:08.201Z,47.81
2022-08-28T16:39:36.421Z,46.68
2022-08-28T16:42:04.598Z,46.37
2022-08-28T16:44:32.530Z,46.28
2022-08-28T16:47:00.549Z,46.15
2022-08-28T16:49:28.649Z,45.95
2022-08-28T16:51:56.493Z,46.55
2022-08-28T16:54:24.423Z,48.88
2022-08-28T16:56:52.585Z,47.68
2022-08-28T16:59:23.309Z,47.65
2022-08-28T17:01:52.988Z,47.32
2022-08-28T17:04:22.156Z,47.03
2022-08-28T17:06:50.091Z,47.12
2022-08-28T17:09:20.984Z,48.16
2022-08-28T17:11:51.772Z,50.39
2022-08-28T17:14:23.378Z,49.01
2022-08-28T17:16:54.526Z,48.41
2022-08-28T17:19:24.493Z,48.20
2022-08-28T17:22:11.216Z,48.08
2022-08-28T17:24:40.058Z,48.12
2022-08-28T17:27:08.106Z,48.24
2022-08-28T17:29:36.459Z,48.21
2022-08-28T17:32:05.944Z,48.29
2022-08-28T17:34:35.844Z,48.43
2022-08-28T17:37:04.623Z,48.40
2022-08-28T17:39:32.598Z,48.52
2022-08-28T17:42:00.553Z,48.65
2022-08-28T17:44:28.417Z,48.75
2022-08-28T17:46:56.567Z,49.06
2022-08-28T17:49:24.665Z,49.30
2022-08-28T17:51:53.074Z,49.45
2022-08-28T17:54:22.738Z,49.52
2022-08-28T17:56:52.037Z,50.54
2022-08-28T17:59:20.292Z,50.98
2022-08-28T18:01:48.551Z,51.77
2022-08-28T18:04:23.248Z,51.04
2022-08-28T18:06:54.639Z,50.92
2022-08-28T18:09:23.477Z,51.30
2022-08-28T18:11:52.049Z,51.50
2022-08-28T18:14:20.044Z,51.64
2022-08-28T18:16:48.032Z,51.79
2022-08-28T18:19:16.575Z,51.95
2022-08-28T18:21:44.839Z,52.05
2022-08-28T18:24:13.288Z,52.41
2022-08-28T18:26:42.113Z,52.99
2022-08-28T18:29:11.663Z,54.97
2022-08-28T18:31:41.641Z,54.93
2022-08-28T18:34:10.131Z,54.61
2022-08-28T18:36:43.166Z,54.53
2022-08-28T18:39:11.233Z,54.60
2022-08-28T18:41:43.526Z,54.49
2022-08-28T18:44:14.427Z,54.54
2022-08-28T18:46:43.391Z,54.99
2022-08-28T18:49:11.610Z,55.08
2022-08-28T18:51:42.415Z,55.72
2022-08-28T18:54:16.705Z,55.46
2022-08-28T18:56:45.590Z,55.48
2022-08-28T18:59:13.521Z,55.37
2022-08-28T19:01:41.914Z,55.78
2022-08-28T19:04:09.939Z,56.05
2022-08-28T19:06:37.838Z,56.33
2022-08-28T19:09:05.799Z,56.77
2022-08-28T19:11:35.961Z,56.99
2022-08-28T19:14:04.258Z,56.90
2022-08-28T19:16:32.506Z,56.90
2022-08-28T19:19:01.847Z,57.69
2022-08-28T19:21:30.358Z,57.66
2022-08-28T19:23:58.569Z,57.54
2022-08-28T19:26:27.010Z,57.30
2022-08-28T19:28:55.155Z,57.41
2022-08-28T19:31:27.326Z,57.42
2022-08-28T19:33:55.513Z,57.69
2022-08-28T19:36:27.218Z,58.01
2022-08-28T19:38:55.189Z,58.56
2022-08-28T19:41:23.123Z,58.07
2022-08-28T19:43:51.251Z,58.84
2022-08-28T19:46:20.328Z,60.04
2022-08-28T19:48:49.884Z,60.06
2022-08-28T19:51:22.959Z,60.90
2022-08-28T19:53:57.175Z,60.82
2022-08-28T19:56:28.087Z,60.37
2022-08-28T19:58:58.511Z,62.56
2022-08-28T20:01:29.945Z,68.28
2022-08-28T20:03:59.145Z,70.25
2022-08-28T20:06:27.926Z,68.07
2022-08-28T20:08:55.866Z,65.55
2022-08-28T20:11:30.144Z,64.15
2022-08-28T20:14:04.408Z,62.72
2022-08-28T20:16:39.156Z,60.95
2022-08-28T20:19:13.511Z,59.81
2022-08-28T20:21:44.324Z,57.66
2022-08-28T20:24:14.847Z,57.14
2022-08-28T20:26:42.817Z,57.63
2022-08-28T20:29:10.951Z,57.38
2022-08-28T20:31:40.680Z,57.50
2022-08-28T20:34:09.542Z,59.27
2022-08-28T20:36:37.370Z,60.47
2022-08-28T20:39:07.251Z,58.77
2022-08-28T20:41:35.971Z,58.21
2022-08-28T20:44:07.872Z,59.26
2022-08-28T20:46:40.045Z,62.13
2022-08-28T20:49:10.583Z,65.83
2022-08-28T20:52:01.119Z,66.85
2022-08-28T20:54:37.040Z,64.14
2022-08-28T20:57:08.019Z,62.35
2022-08-28T20:59:40.241Z,61.39
2022-08-28T21:02:11.746Z,60.45
2022-08-28T21:04:40.296Z,60.01
2022-08-28T21:07:08.850Z,57.83
2022-08-28T21:10:04.625Z,56.91
2022-08-28T21:12:24.824Z,57.05
2022-08-28T21:14:53.079Z,57.03
2022-08-28T21:17:28.936Z,56.99
2022-08-28T21:20:00.363Z,57.27
2022-08-28T21:22:29.928Z,57.50
2022-08-28T21:24:57.677Z,60.31
2022-08-28T21:27:25.582Z,60.15
2022-08-28T21:29:58.160Z,61.50
2022-08-28T21:32:27.297Z,60.79
2022-08-28T21:34:55.338Z,61.99
2022-08-28T21:37:23.434Z,66.19
2022-08-28T21:39:52.320Z,69.08
2022-08-28T21:42:21.801Z,67.45
2022-08-28T21:44:52.054Z,65.68
2022-08-28T21:47:23.124Z,64.75
2022-08-28T21:49:56.349Z,64.61
2022-08-28T21:52:30.049Z,63.24
2022-08-28T21:55:03.003Z,61.89
2022-08-28T21:57:31.227Z,61.13
2022-08-28T21:59:59.257Z,60.47
2022-08-28T22:02:27.262Z,60.02
2022-08-28T22:04:55.156Z,59.72
2022-08-28T22:07:22.882Z,57.82
2022-08-28T22:09:50.923Z,57.51
2022-08-28T22:12:18.731Z,58.33
2022-08-28T22:14:46.794Z,58.68
2022-08-28T22:17:15.429Z,60.11
2022-08-28T22:19:46.606Z,59.53
2022-08-28T22:22:34.219Z,59.83
2022-08-28T22:25:02.315Z,61.55
2022-08-28T22:27:32.027Z,60.88
2022-08-28T22:29:59.968Z,60.96
2022-08-28T22:32:28.200Z,60.34
2022-08-28T22:34:56.192Z,60.32
2022-08-28T22:37:23.962Z,60.27
2022-08-28T22:39:51.876Z,61.53
2022-08-28T22:42:19.679Z,65.72
2022-08-28T22:44:47.590Z,69.74
2022-08-28T22:47:15.346Z,69.53
2022-08-28T22:49:46.923Z,67.09
2022-08-28T22:52:15.528Z,65.33
2022-08-28T22:54:44.555Z,65.03
2022-08-28T22:57:12.418Z,64.03
2022-08-28T22:59:40.217Z,63.50
2022-08-28T23:02:08.445Z,62.57
2022-08-28T23:04:36.429Z,62.27
2022-08-28T23:07:05.844Z,61.38
2022-08-28T23:09:35.955Z,60.71
2022-08-28T23:12:05.626Z,60.58
2022-08-28T23:14:33.931Z,60.04
2022-08-28T23:17:01.942Z,59.70
2022-08-28T23:19:30.365Z,59.26
2022-08-28T23:21:58.553Z,57.89
2022-08-28T23:24:26.662Z,58.39
2022-08-28T23:26:54.698Z,59.62
2022-08-28T23:29:22.767Z,59.93
2022-08-28T23:31:50.699Z,63.13
2022-08-28T23:34:18.743Z,65.54
2022-08-28T23:36:47.082Z,63.58
2022-08-28T23:39:14.857Z,60.25
2022-08-28T23:41:42.811Z,60.89
2022-08-28T23:44:10.881Z,63.58
2022-08-28T23:46:41.682Z,61.63
2022-08-28T23:49:11.489Z,60.90
2022-08-28T23:51:40.835Z,59.18
2022-08-28T23:54:09.414Z,59.32
2022-08-28T23:56:37.896Z,61.34
2022-08-28T23:59:06.069Z,63.87
